createdAt,value
2017-10-03T00:01:56.294Z,67.46
2017-10-03T00:04:24.655Z,67.32
2017-10-03T00:06:52.968Z,67.42
2017-10-03T00:09:21.558Z,67.41
2017-10-03T00:11:49.870Z,67.05
2017-10-03T00:14:18.974Z,67.22
2017-10-03T00:16:48.055Z,67.30
2017-10-03T00:19:16.414Z,67.30
2017-10-03T00:24:12.756Z,67.35
2017-10-03T00:26:41.157Z,67.29
2017-10-03T00:29:09.536Z,67.34
2017-10-03T00:31:37.886Z,67.43
2017-10-03T00:34:06.202Z,67.40
2017-10-03T00:36:34.498Z,67.26
2017-10-03T00:39:02.802Z,67.54
2017-10-03T00:41:31.864Z,67.45
2017-10-03T00:44:00.284Z,67.51
2017-10-03T00:46:29.352Z,67.67
2017-10-03T00:48:57.659Z,67.78
2017-10-03T00:51:26.821Z,67.83
2017-10-03T00:53:55.134Z,67.87
2017-10-03T00:56:23.489Z,67.83
2017-10-03T00:58:51.806Z,67.94
2017-10-03T01:01:20.875Z,68.08
2017-10-03T01:03:49.200Z,68.19
2017-10-03T01:06:17.548Z,68.03
2017-10-03T01:08:45.850Z,68.03
2017-10-03T01:11:14.932Z,68.09
2017-10-03T01:13:43.268Z,67.95
2017-10-03T01:16:11.578Z,68.10
2017-10-03T01:18:39.886Z,68.45
2017-10-03T01:21:08.981Z,68.62
2017-10-03T01:23:37.292Z,69.01
2017-10-03T01:26:05.610Z,69.66
2017-10-03T01:28:33.941Z,70.40
2017-10-03T01:31:03.035Z,70.71
2017-10-03T01:33:32.105Z,71.26
2017-10-03T01:36:00.434Z,71.71
2017-10-03T01:38:28.736Z,72.21
2017-10-03T01:40:57.059Z,72.24
2017-10-03T01:43:25.434Z,72.14
2017-10-03T01:45:53.764Z,72.07
2017-10-03T01:48:22.097Z,72.12
2017-10-03T01:50:50.388Z,71.97
2017-10-03T01:53:18.733Z,71.82
2017-10-03T01:55:47.798Z,71.79
2017-10-03T01:58:16.111Z,71.64
2017-10-03T02:00:44.493Z,71.57
2017-10-03T02:03:12.797Z,71.61
2017-10-03T02:05:41.092Z,71.66
2017-10-03T02:08:10.191Z,71.60
2017-10-03T02:10:38.498Z,71.49
2017-10-03T02:13:06.828Z,71.71
2017-10-03T02:15:35.251Z,71.69
2017-10-03T02:18:04.423Z,71.73
2017-10-03T02:20:32.796Z,71.84
2017-10-03T02:23:01.415Z,71.64
2017-10-03T02:25:30.501Z,71.68
2017-10-03T02:27:59.583Z,71.89
2017-10-03T02:30:27.902Z,72.10
2017-10-03T02:32:56.964Z,72.35
2017-10-03T02:35:25.263Z,72.39
2017-10-03T02:37:53.565Z,72.28
2017-10-03T02:40:22.637Z,72.26
2017-10-03T02:42:50.967Z,72.40
2017-10-03T02:45:19.291Z,72.65
2017-10-03T02:47:47.703Z,73.60
2017-10-03T02:50:16.777Z,76.20
2017-10-03T02:52:45.076Z,78.43
2017-10-03T02:55:14.152Z,80.35
2017-10-03T02:57:42.447Z,81.29
2017-10-03T03:00:10.829Z,82.38
2017-10-03T03:02:39.195Z,83.36
2017-10-03T03:05:07.506Z,83.94
2017-10-03T03:07:36.587Z,84.50
2017-10-03T03:10:04.885Z,84.92
2017-10-03T03:12:33.957Z,84.79
2017-10-03T03:15:02.335Z,84.99
2017-10-03T03:17:30.653Z,85.06
2017-10-03T03:19:59.729Z,84.92
2017-10-03T03:22:28.026Z,84.96
2017-10-03T03:24:57.129Z,85.25
2017-10-03T03:27:26.247Z,85.35
2017-10-03T03:29:54.639Z,85.33
2017-10-03T03:32:22.948Z,85.36
2017-10-03T03:34:51.239Z,85.47
2017-10-03T03:37:19.532Z,85.40
2017-10-03T03:39:48.266Z,85.56
2017-10-03T03:42:16.609Z,85.46
2017-10-03T03:44:44.927Z,85.56
2017-10-03T03:47:13.219Z,85.68
2017-10-03T03:49:41.543Z,85.84
2017-10-03T03:52:09.863Z,85.98
2017-10-03T03:54:38.171Z,86.12
2017-10-03T03:57:06.481Z,86.42
2017-10-03T03:59:34.798Z,86.55
2017-10-03T04:02:03.119Z,86.70
2017-10-03T04:04:31.503Z,86.85
2017-10-03T04:06:59.821Z,87.22
2017-10-03T04:09:28.143Z,87.45
2017-10-03T04:11:56.441Z,87.54
2017-10-03T04:14:24.763Z,87.19
2017-10-03T04:16:53.063Z,86.72
2017-10-03T04:19:22.147Z,86.21
2017-10-03T04:21:50.472Z,85.95
2017-10-03T04:24:18.760Z,85.98
2017-10-03T04:26:47.071Z,86.06
2017-10-03T04:29:15.371Z,86.03
2017-10-03T04:31:44.464Z,85.87
2017-10-03T04:34:12.794Z,85.83
2017-10-03T04:36:41.095Z,85.92
2017-10-03T04:39:09.393Z,86.13
2017-10-03T04:41:38.463Z,85.99
2017-10-03T04:46:41.404Z,86.19
2017-10-03T04:49:09.725Z,86.27
2017-10-03T04:51:38.042Z,86.17
2017-10-03T04:54:06.673Z,86.25
2017-10-03T04:56:35.742Z,86.00
2017-10-03T04:59:04.058Z,85.96
2017-10-03T05:01:33.152Z,85.77
2017-10-03T05:04:02.507Z,85.48
2017-10-03T05:06:30.812Z,85.51
2017-10-03T05:08:59.112Z,85.45
2017-10-03T05:11:28.200Z,85.13
2017-10-03T05:13:56.513Z,84.82
2017-10-03T05:16:24.813Z,84.62
2017-10-03T05:18:53.098Z,84.59
2017-10-03T05:21:21.470Z,84.53
2017-10-03T05:23:49.776Z,84.48
2017-10-03T05:26:18.090Z,84.25
2017-10-03T05:28:46.390Z,84.03
2017-10-03T05:31:15.462Z,83.90
2017-10-03T05:33:43.764Z,83.66
2017-10-03T05:36:12.848Z,83.44
2017-10-03T05:38:41.164Z,83.23
2017-10-03T05:41:10.429Z,82.97
2017-10-03T05:43:38.735Z,82.91
2017-10-03T05:46:07.821Z,82.84
2017-10-03T05:48:36.968Z,82.51
2017-10-03T05:51:05.322Z,82.34
2017-10-03T05:53:33.661Z,82.16
2017-10-03T05:56:01.978Z,81.74
2017-10-03T05:58:31.090Z,81.55
2017-10-03T06:00:59.416Z,81.68
2017-10-03T06:03:27.740Z,81.60
2017-10-03T06:05:56.847Z,81.72
2017-10-03T06:08:25.158Z,81.17
2017-10-03T06:10:53.470Z,80.69
2017-10-03T06:13:21.759Z,80.40
2017-10-03T06:15:50.094Z,80.00
2017-10-03T06:18:18.405Z,79.76
2017-10-03T06:20:46.737Z,79.41
2017-10-03T06:23:15.038Z,79.46
2017-10-03T06:25:43.362Z,79.85
2017-10-03T06:28:11.697Z,79.91
2017-10-03T06:30:40.016Z,80.02
2017-10-03T06:33:08.318Z,79.97
2017-10-03T06:35:36.616Z,79.81
2017-10-03T06:38:05.730Z,79.48
2017-10-03T06:40:34.052Z,79.18
2017-10-03T06:43:02.348Z,78.61
2017-10-03T06:45:30.645Z,78.46
2017-10-03T06:47:59.876Z,78.13
2017-10-03T06:50:28.165Z,78.14
2017-10-03T06:52:56.470Z,78.15
2017-10-03T06:55:24.851Z,77.70
2017-10-03T06:57:53.174Z,77.72
2017-10-03T07:00:22.244Z,77.66
2017-10-03T07:02:50.545Z,77.34
2017-10-03T07:05:19.614Z,77.36
2017-10-03T07:07:47.929Z,77.21
2017-10-03T07:10:16.996Z,76.98
2017-10-03T07:12:45.340Z,76.84
2017-10-03T07:15:13.662Z,76.95
2017-10-03T07:17:41.968Z,77.03
2017-10-03T07:20:11.040Z,77.12
2017-10-03T07:22:39.390Z,77.00
2017-10-03T07:25:07.710Z,76.74
2017-10-03T07:27:36.024Z,76.76
2017-10-03T07:30:04.339Z,77.08
2017-10-03T07:32:32.774Z,76.68
2017-10-03T07:35:01.592Z,76.39
2017-10-03T07:37:29.930Z,76.00
2017-10-03T07:39:59.736Z,75.64
2017-10-03T07:42:28.078Z,75.76
2017-10-03T07:44:56.392Z,75.50
2017-10-03T07:47:24.720Z,75.48
2017-10-03T07:49:53.804Z,75.28
2017-10-03T07:52:22.105Z,75.23
2017-10-03T07:54:51.199Z,74.96
2017-10-03T07:57:20.289Z,74.76
2017-10-03T07:59:49.405Z,74.30
2017-10-03T08:02:17.717Z,74.17
2017-10-03T08:04:46.107Z,74.06
2017-10-03T08:07:14.449Z,73.75
2017-10-03T08:09:42.776Z,73.47
2017-10-03T08:12:11.075Z,72.94
2017-10-03T08:14:39.381Z,72.81
2017-10-03T08:17:08.600Z,72.88
2017-10-03T08:19:36.904Z,72.60
2017-10-03T08:22:05.222Z,72.56
2017-10-03T08:24:33.518Z,72.14
2017-10-03T08:27:01.843Z,72.25
2017-10-03T08:29:30.186Z,72.12
2017-10-03T08:31:59.267Z,72.33
2017-10-03T08:34:27.578Z,72.17
2017-10-03T08:36:56.716Z,72.33
2017-10-03T08:39:25.045Z,72.58
2017-10-03T08:41:54.180Z,72.80
2017-10-03T08:44:22.490Z,73.06
2017-10-03T08:46:50.806Z,73.00
2017-10-03T08:49:19.966Z,72.70
2017-10-03T08:51:48.294Z,72.86
2017-10-03T08:54:17.419Z,72.76
2017-10-03T08:56:45.781Z,72.27
2017-10-03T08:59:14.836Z,70.80
2017-10-03T09:01:43.154Z,70.24
2017-10-03T09:04:12.239Z,69.58
2017-10-03T09:06:40.594Z,68.54
2017-10-03T09:09:08.913Z,68.46
2017-10-03T09:11:38.076Z,69.90
2017-10-03T09:14:06.461Z,70.56
2017-10-03T09:16:34.770Z,70.00
2017-10-03T09:19:04.041Z,69.38
2017-10-03T09:21:33.059Z,69.29
2017-10-03T09:24:01.471Z,69.23
2017-10-03T09:26:30.525Z,69.59
2017-10-03T09:28:58.832Z,69.75
2017-10-03T09:31:27.141Z,69.55
2017-10-03T09:33:55.443Z,69.66
2017-10-03T09:36:23.755Z,69.67
2017-10-03T09:38:52.088Z,69.45
2017-10-03T09:41:20.405Z,69.42
2017-10-03T09:43:48.697Z,68.84
2017-10-03T09:46:17.025Z,69.10
2017-10-03T09:48:45.337Z,69.41
2017-10-03T09:51:13.648Z,69.25
2017-10-03T09:53:41.979Z,68.61
2017-10-03T09:56:10.263Z,70.43
2017-10-03T09:58:38.596Z,71.69
2017-10-03T10:01:08.462Z,72.60
2017-10-03T10:03:36.774Z,73.04
2017-10-03T10:06:05.106Z,73.22
2017-10-03T10:08:33.441Z,73.04
2017-10-03T10:11:01.893Z,73.12
2017-10-03T10:13:30.211Z,72.63
2017-10-03T10:15:58.514Z,73.02
2017-10-03T10:18:26.825Z,72.72
2017-10-03T10:20:55.231Z,72.48
2017-10-03T10:23:24.277Z,72.50
2017-10-03T10:25:53.341Z,72.34
2017-10-03T10:28:21.669Z,72.43
2017-10-03T10:30:50.741Z,71.40
2017-10-03T10:33:19.181Z,69.83
2017-10-03T10:35:47.463Z,68.82
2017-10-03T10:38:15.763Z,68.33
2017-10-03T10:40:44.063Z,67.22
2017-10-03T10:43:12.357Z,65.64
2017-10-03T10:45:40.669Z,65.51
2017-10-03T10:48:08.977Z,65.80
2017-10-03T10:50:37.276Z,65.55
2017-10-03T10:53:05.730Z,65.47
2017-10-03T10:55:34.022Z,65.03
2017-10-03T10:58:02.311Z,65.10
2017-10-03T11:00:30.621Z,64.30
2017-10-03T11:02:58.969Z,62.64
2017-10-03T11:05:27.535Z,62.34
2017-10-03T11:07:55.861Z,62.08
2017-10-03T11:10:24.169Z,62.04
2017-10-03T11:12:53.253Z,60.78
2017-10-03T11:15:21.685Z,60.65
2017-10-03T11:17:50.041Z,60.12
2017-10-03T11:20:19.125Z,59.48
2017-10-03T11:23:05.681Z,59.43
2017-10-03T11:25:33.981Z,59.34
2017-10-03T11:28:02.319Z,58.91
2017-10-03T11:30:30.611Z,58.80
2017-10-03T11:32:58.929Z,58.41
2017-10-03T11:35:27.263Z,58.50
2017-10-03T11:37:55.553Z,57.99
2017-10-03T11:40:23.868Z,57.85
2017-10-03T11:42:52.163Z,57.51
2017-10-03T11:45:20.549Z,57.23
2017-10-03T11:47:48.860Z,56.80
2017-10-03T11:50:17.253Z,56.32
2017-10-03T11:52:45.556Z,55.69
2017-10-03T11:55:13.863Z,59.06
2017-10-03T11:57:42.201Z,64.21
2017-10-03T12:00:10.491Z,65.32
2017-10-03T12:02:38.824Z,66.65
2017-10-03T12:05:07.121Z,65.04
2017-10-03T12:07:36.199Z,64.01
2017-10-03T12:10:04.512Z,64.33
2017-10-03T12:12:32.829Z,65.96
2017-10-03T12:15:01.123Z,69.36
2017-10-03T12:17:29.425Z,70.50
2017-10-03T12:19:57.788Z,71.41
2017-10-03T12:22:26.122Z,71.80
2017-10-03T12:24:54.414Z,71.91
2017-10-03T12:27:22.723Z,71.45
2017-10-03T12:29:51.161Z,71.72
2017-10-03T12:32:19.461Z,71.34
2017-10-03T12:34:47.746Z,70.21
2017-10-03T12:37:16.070Z,69.85
2017-10-03T12:39:44.405Z,70.29
2017-10-03T12:42:12.698Z,69.24
2017-10-03T12:44:41.015Z,68.25
2017-10-03T12:47:09.329Z,66.47
2017-10-03T12:49:37.646Z,65.24
2017-10-03T12:52:05.965Z,64.31
2017-10-03T12:54:34.326Z,63.61
2017-10-03T12:57:02.642Z,63.42
2017-10-03T12:59:31.699Z,63.04
2017-10-03T13:02:00.020Z,62.63
2017-10-03T13:04:29.110Z,62.21
2017-10-03T13:06:58.256Z,62.02
2017-10-03T13:09:26.614Z,61.39
2017-10-03T13:11:55.065Z,60.68
2017-10-03T13:14:23.433Z,60.25
2017-10-03T13:16:51.806Z,60.11
2017-10-03T13:19:20.112Z,60.07
2017-10-03T13:21:48.425Z,59.67
2017-10-03T13:24:17.484Z,59.67
2017-10-03T13:26:45.795Z,59.91
2017-10-03T13:29:14.869Z,59.71
2017-10-03T13:31:43.170Z,60.15
2017-10-03T13:34:12.270Z,60.20
2017-10-03T13:36:41.328Z,60.15
2017-10-03T13:39:09.631Z,60.14
2017-10-03T13:41:37.948Z,60.13
2017-10-03T13:44:06.260Z,60.15
2017-10-03T13:46:34.583Z,59.99
2017-10-03T13:49:03.686Z,60.38
2017-10-03T13:51:31.979Z,59.67
2017-10-03T13:54:01.062Z,59.45
2017-10-03T13:56:29.660Z,59.26
2017-10-03T13:58:59.496Z,59.43
2017-10-03T14:01:28.060Z,59.02
2017-10-03T14:03:56.366Z,59.16
2017-10-03T14:06:24.657Z,58.22
2017-10-03T14:08:53.027Z,58.18
2017-10-03T14:11:21.322Z,57.59
2017-10-03T14:13:49.640Z,57.59
2017-10-03T14:16:17.939Z,57.76
2017-10-03T14:18:47.011Z,57.80
2017-10-03T14:21:15.324Z,58.00
2017-10-03T14:23:43.631Z,57.45
2017-10-03T14:26:11.937Z,57.50
2017-10-03T14:28:40.247Z,57.71
2017-10-03T14:31:08.577Z,57.86
2017-10-03T14:33:36.904Z,57.74
2017-10-03T14:36:05.231Z,58.03
2017-10-03T14:38:33.546Z,58.49
2017-10-03T14:41:01.858Z,59.10
2017-10-03T14:43:30.201Z,59.26
2017-10-03T14:45:58.505Z,59.07
2017-10-03T14:48:26.799Z,59.13
2017-10-03T14:50:55.164Z,58.90
2017-10-03T14:53:23.478Z,59.18
2017-10-03T14:55:51.802Z,59.16
2017-10-03T14:58:20.110Z,59.03
2017-10-03T15:00:48.412Z,59.07
2017-10-03T15:03:16.723Z,58.81
2017-10-03T15:05:45.820Z,58.86
2017-10-03T15:08:14.940Z,58.79
2017-10-03T15:10:43.238Z,58.81
2017-10-03T15:13:11.562Z,59.22
2017-10-03T15:15:39.924Z,59.00
2017-10-03T15:18:08.212Z,58.27
2017-10-03T15:20:36.525Z,58.64
2017-10-03T15:23:05.606Z,58.87
2017-10-03T15:25:33.991Z,58.90
2017-10-03T15:28:03.060Z,59.16
2017-10-03T15:30:31.486Z,59.47
2017-10-03T15:32:59.802Z,59.83
2017-10-03T15:35:28.094Z,59.95
2017-10-03T15:37:56.428Z,60.19
2017-10-03T15:40:25.530Z,60.18
2017-10-03T15:42:54.614Z,60.23
2017-10-03T15:45:22.934Z,59.81
2017-10-03T15:47:51.416Z,59.74
2017-10-03T15:50:19.725Z,59.74
2017-10-03T15:52:48.020Z,59.69
2017-10-03T15:55:16.326Z,59.74
2017-10-03T15:57:45.391Z,59.38
2017-10-03T16:00:13.672Z,59.24
2017-10-03T16:02:41.956Z,58.93
2017-10-03T16:05:10.258Z,59.28
2017-10-03T16:07:38.591Z,59.11
2017-10-03T16:10:06.900Z,59.34
2017-10-03T16:12:35.314Z,59.47
2017-10-03T16:15:04.402Z,59.94
2017-10-03T16:17:32.750Z,60.30
2017-10-03T16:20:01.046Z,60.09
2017-10-03T16:22:29.415Z,60.56
2017-10-03T16:24:57.717Z,60.56
2017-10-03T16:27:26.019Z,60.80
2017-10-03T16:29:55.110Z,60.76
2017-10-03T16:32:23.417Z,60.71
2017-10-03T16:34:51.746Z,60.90
2017-10-03T16:37:20.874Z,61.22
2017-10-03T16:39:49.191Z,61.33
2017-10-03T16:42:17.493Z,61.58
2017-10-03T16:44:45.803Z,61.64
2017-10-03T16:47:14.143Z,61.64
2017-10-03T16:49:42.441Z,61.86
2017-10-03T16:52:10.800Z,61.83
2017-10-03T16:54:39.126Z,62.07
2017-10-03T16:57:07.487Z,62.48
2017-10-03T16:59:35.788Z,62.62
2017-10-03T17:02:04.115Z,62.66
2017-10-03T17:04:32.415Z,63.00
2017-10-03T17:07:00.721Z,63.27
2017-10-03T17:09:29.099Z,63.21
2017-10-03T17:11:57.569Z,65.63
2017-10-03T17:14:25.920Z,66.97
2017-10-03T17:16:54.258Z,67.11
2017-10-03T17:19:22.570Z,66.79
2017-10-03T17:21:51.634Z,66.07
2017-10-03T17:24:19.972Z,66.38
2017-10-03T17:26:48.433Z,66.34
2017-10-03T17:29:17.522Z,66.14
2017-10-03T17:31:46.593Z,66.05
2017-10-03T17:34:14.899Z,66.21
2017-10-03T17:36:43.214Z,66.57
2017-10-03T17:39:11.507Z,66.93
2017-10-03T17:41:39.817Z,66.72
2017-10-03T17:44:08.172Z,66.78
2017-10-03T17:46:36.483Z,67.16
2017-10-03T17:49:04.840Z,66.88
2017-10-03T17:51:33.136Z,66.73
2017-10-03T17:54:01.447Z,66.78
2017-10-03T17:56:30.518Z,66.99
2017-10-03T17:58:58.824Z,67.12
2017-10-03T18:01:27.129Z,66.78
2017-10-03T18:03:56.215Z,67.70
2017-10-03T18:06:25.309Z,67.48
2017-10-03T18:08:53.621Z,67.17
2017-10-03T18:11:22.598Z,67.04
2017-10-03T18:13:51.031Z,66.87
2017-10-03T18:16:19.344Z,66.63
2017-10-03T18:18:47.685Z,66.15
2017-10-03T18:21:16.363Z,66.17
2017-10-03T18:23:44.695Z,66.18
2017-10-03T18:26:13.085Z,65.81
2017-10-03T18:28:41.804Z,65.79
2017-10-03T18:31:10.701Z,65.70
2017-10-03T18:33:39.509Z,66.05
2017-10-03T18:36:08.242Z,66.28
2017-10-03T18:38:37.377Z,66.39
2017-10-03T18:41:06.799Z,66.58
2017-10-03T18:43:35.149Z,66.72
2017-10-03T18:46:04.587Z,66.72
2017-10-03T18:48:33.280Z,66.77
2017-10-03T18:51:01.905Z,66.85
2017-10-03T18:53:31.375Z,66.75
2017-10-03T18:56:00.086Z,67.05
2017-10-03T18:58:28.895Z,67.24
2017-10-03T19:00:58.577Z,67.11
2017-10-03T19:03:27.294Z,67.17
2017-10-03T19:05:56.763Z,67.36
2017-10-03T19:08:25.456Z,65.61
2017-10-03T19:10:54.247Z,66.08
2017-10-03T19:13:22.907Z,65.96
2017-10-03T19:15:51.626Z,65.80
2017-10-03T19:18:20.291Z,66.05
2017-10-03T19:20:49.107Z,66.16
2017-10-03T19:23:17.797Z,66.57
2017-10-03T19:25:46.419Z,66.64
2017-10-03T19:28:15.899Z,66.69
2017-10-03T19:30:44.749Z,66.55
2017-10-03T19:33:13.476Z,66.72
2017-10-03T19:35:42.133Z,66.76
2017-10-03T19:38:10.823Z,66.69
2017-10-03T19:40:39.544Z,66.44
2017-10-03T19:43:08.342Z,66.56
2017-10-03T19:45:36.969Z,66.45
2017-10-03T19:48:06.379Z,66.47
2017-10-03T19:50:34.825Z,66.33
2017-10-03T19:53:04.222Z,66.26
2017-10-03T19:55:32.620Z,66.07
2017-10-03T19:58:00.963Z,65.82
2017-10-03T20:00:30.066Z,65.81
2017-10-03T20:02:59.184Z,65.14
2017-10-03T20:05:27.501Z,65.19
2017-10-03T20:07:55.899Z,65.10
2017-10-03T20:10:24.202Z,64.90
2017-10-03T20:12:53.305Z,65.18
2017-10-03T20:15:22.384Z,65.83
2017-10-03T20:17:50.752Z,65.65
2017-10-03T20:20:19.784Z,65.83
2017-10-03T20:22:48.123Z,65.91
2017-10-03T20:25:16.440Z,65.96
2017-10-03T20:27:45.524Z,66.04
2017-10-03T20:30:13.851Z,66.09
2017-10-03T20:32:42.171Z,66.10
2017-10-03T20:35:10.473Z,66.21
2017-10-03T20:37:38.823Z,66.17
2017-10-03T20:40:07.147Z,66.34
2017-10-03T20:42:36.387Z,65.90
2017-10-03T20:45:04.839Z,65.75
2017-10-03T20:47:34.570Z,65.88
2017-10-03T20:50:02.892Z,65.95
2017-10-03T20:52:31.196Z,65.79
2017-10-03T20:54:59.553Z,65.52
2017-10-03T20:57:27.892Z,65.45
2017-10-03T20:59:56.226Z,65.39
2017-10-03T21:02:24.583Z,65.59
2017-10-03T21:04:52.903Z,65.42
2017-10-03T21:07:21.237Z,65.23
2017-10-03T21:09:49.570Z,65.12
2017-10-03T21:12:17.882Z,64.79
2017-10-03T21:14:46.216Z,64.69
2017-10-03T21:17:14.540Z,64.23
2017-10-03T21:19:43.654Z,64.12
2017-10-03T21:22:11.956Z,64.15
2017-10-03T21:24:40.254Z,63.90
2017-10-03T21:27:08.565Z,63.82
2017-10-03T21:29:37.637Z,63.89
2017-10-03T21:32:05.944Z,63.88
2017-10-03T21:34:34.258Z,63.61
2017-10-03T21:37:02.592Z,63.04
2017-10-03T21:39:30.901Z,63.33
2017-10-03T21:42:17.948Z,63.05
2017-10-03T21:44:46.239Z,63.14
2017-10-03T21:47:14.579Z,63.30
2017-10-03T21:49:42.902Z,62.97
2017-10-03T21:52:11.279Z,62.87
2017-10-03T21:54:39.580Z,62.61
2017-10-03T21:57:07.906Z,62.31
2017-10-03T21:59:36.204Z,62.40
2017-10-03T22:02:04.506Z,62.61
2017-10-03T22:04:32.829Z,62.32
2017-10-03T22:07:01.911Z,62.32
2017-10-03T22:09:30.225Z,62.44
2017-10-03T22:11:59.297Z,61.99
2017-10-03T22:14:27.586Z,61.94
2017-10-03T22:16:56.660Z,62.29
2017-10-03T22:19:25.079Z,62.36
2017-10-03T22:21:54.168Z,62.29
2017-10-03T22:24:23.223Z,62.50
2017-10-03T22:26:51.545Z,62.67
2017-10-03T22:29:19.859Z,62.37
2017-10-03T22:31:48.182Z,62.40
2017-10-03T22:34:16.522Z,62.25
2017-10-03T22:36:44.818Z,62.21
2017-10-03T22:39:13.104Z,61.78
2017-10-03T22:41:41.430Z,62.03
2017-10-03T22:44:09.874Z,61.85
2017-10-03T22:46:38.223Z,61.95
2017-10-03T22:49:16.448Z,62.10
2017-10-03T22:51:50.357Z,61.78
2017-10-03T22:54:18.665Z,61.84
2017-10-03T22:56:46.976Z,61.75
2017-10-03T22:59:15.298Z,61.56
2017-10-03T23:01:43.604Z,61.51
2017-10-03T23:04:11.956Z,61.54
2017-10-03T23:06:40.324Z,61.35
2017-10-03T23:09:08.654Z,61.78
2017-10-03T23:11:36.982Z,61.47
2017-10-03T23:14:06.056Z,61.30
2017-10-03T23:16:34.412Z,61.04
2017-10-03T23:19:02.762Z,60.59
2017-10-03T23:21:31.074Z,60.51
2017-10-03T23:23:59.430Z,60.17
2017-10-03T23:26:27.728Z,59.94
2017-10-03T23:28:56.146Z,59.94
2017-10-03T23:31:24.466Z,60.10
2017-10-03T23:33:52.765Z,59.94
2017-10-03T23:36:21.059Z,60.09
2017-10-03T23:38:49.392Z,59.98
2017-10-03T23:41:18.534Z,60.06
2017-10-03T23:43:46.916Z,60.35
2017-10-03T23:46:15.276Z,60.84
2017-10-03T23:48:44.349Z,61.07
2017-10-03T23:51:13.409Z,60.92
2017-10-03T23:53:41.753Z,61.00
2017-10-03T23:56:10.050Z,60.94
2017-10-03T23:58:38.362Z,60.94
